createdAt,value
2023-04-30T00:02:37.079Z,98154.56
2023-04-30T00:05:43.769Z,98139.28
2023-04-30T00:08:49.348Z,98146.00
2023-04-30T00:11:56.043Z,98148.03
2023-04-30T00:15:01.777Z,98149.66
2023-04-30T00:18:11.271Z,98148.19
2023-04-30T00:21:17.002Z,98145.34
2023-04-30T00:24:23.297Z,98147.44
2023-04-30T00:27:28.817Z,98167.84
2023-04-30T00:30:35.485Z,98161.53
2023-04-30T00:33:43.783Z,98148.69
2023-04-30T00:36:50.821Z,98161.72
2023-04-30T00:39:56.699Z,98154.56
2023-04-30T00:43:03.498Z,98159.53
2023-04-30T00:46:09.253Z,98168.53
2023-04-30T00:49:18.598Z,98160.66
2023-04-30T00:52:24.241Z,98163.81
2023-04-30T00:55:30.747Z,98162.94
2023-04-30T00:58:37.011Z,98170.44
2023-04-30T01:01:44.661Z,98161.91
2023-04-30T01:04:55.312Z,98107.53
2023-04-30T01:08:01.755Z,98170.31
2023-04-30T01:11:25.624Z,98172.19
2023-04-30T01:14:43.170Z,98154.28
2023-04-30T01:18:00.291Z,98163.38
2023-04-30T01:21:11.024Z,98184.28
2023-04-30T01:24:53.225Z,98178.53
2023-04-30T01:28:09.356Z,98175.16
2023-04-30T01:31:21.216Z,98176.81
2023-04-30T01:34:27.716Z,98179.78
2023-04-30T01:37:54.740Z,98184.66
2023-04-30T01:41:25.942Z,98193.28
2023-04-30T01:44:57.928Z,98188.88
2023-04-30T01:48:23.013Z,98184.66
2023-04-30T01:51:42.725Z,98188.03
2023-04-30T01:54:59.554Z,98197.06
2023-04-30T01:58:12.428Z,98184.84
2023-04-30T02:01:34.440Z,98189.25
2023-04-30T02:04:40.192Z,98195.53
2023-04-30T02:07:52.317Z,98187.13
2023-04-30T02:10:57.780Z,98201.63
2023-04-30T02:14:04.159Z,98184.78
2023-04-30T02:17:13.322Z,98192.34
2023-04-30T02:20:19.761Z,98202.97
2023-04-30T02:23:25.279Z,98203.06
2023-04-30T02:26:31.661Z,98208.44
2023-04-30T02:29:37.468Z,98217.66
2023-04-30T02:32:46.743Z,98233.69
2023-04-30T02:35:52.963Z,98238.25
2023-04-30T02:38:59.511Z,98231.28
2023-04-30T02:42:07.020Z,98232.53
2023-04-30T02:45:13.666Z,98244.25
2023-04-30T02:48:21.956Z,98244.28
2023-04-30T02:51:28.516Z,98251.97
2023-04-30T02:54:34.033Z,98247.91
2023-04-30T02:57:40.596Z,98265.31
2023-04-30T03:00:46.236Z,98253.19
2023-04-30T03:03:55.717Z,98274.22
2023-04-30T03:07:01.214Z,98275.75
2023-04-30T03:10:08.669Z,98280.88
2023-04-30T03:13:14.125Z,98283.44
2023-04-30T03:16:22.414Z,98313.13
2023-04-30T03:19:30.684Z,98302.13
2023-04-30T03:22:37.044Z,98289.13
2023-04-30T03:25:42.753Z,98293.19
2023-04-30T03:28:49.690Z,98312.28
2023-04-30T03:31:55.245Z,98329.75
2023-04-30T03:35:04.385Z,98321.09
2023-04-30T03:38:09.820Z,98315.13
2023-04-30T03:41:16.254Z,98331.84
2023-04-30T03:44:21.981Z,98337.88
2023-04-30T03:47:28.712Z,98334.50
2023-04-30T03:50:37.110Z,98356.41
2023-04-30T03:53:43.448Z,98343.47
2023-04-30T03:56:49.275Z,98348.72
2023-04-30T03:59:55.958Z,98358.06
2023-04-30T04:03:02.724Z,98357.31
2023-04-30T04:06:12.071Z,98348.97
2023-04-30T04:09:17.510Z,98365.50
2023-04-30T04:12:23.961Z,98362.25
2023-04-30T04:15:29.666Z,98372.53
2023-04-30T04:18:36.830Z,98368.25
2023-04-30T04:21:45.231Z,98374.38
2023-04-30T04:24:55.491Z,98369.88
2023-04-30T04:28:02.494Z,98375.16
2023-04-30T04:31:09.130Z,98376.81
2023-04-30T04:34:16.086Z,98394.84
2023-04-30T04:37:25.224Z,98393.06
2023-04-30T04:40:31.803Z,98391.72
2023-04-30T04:43:38.696Z,98395.88
2023-04-30T04:46:44.824Z,98407.09
2023-04-30T04:49:51.566Z,98412.03
2023-04-30T04:52:59.792Z,98416.16
2023-04-30T04:56:06.528Z,98422.50
2023-04-30T04:59:12.081Z,98411.50
2023-04-30T05:02:18.484Z,98429.38
2023-04-30T05:05:24.063Z,98434.59
2023-04-30T05:08:33.413Z,98443.81
2023-04-30T05:11:41.809Z,98441.78
2023-04-30T05:14:49.725Z,98446.13
2023-04-30T05:17:56.376Z,98465.53
2023-04-30T05:21:08.422Z,98452.13
2023-04-30T05:24:16.655Z,98463.63
2023-04-30T05:27:23.002Z,98466.66
2023-04-30T05:30:28.645Z,98480.22
2023-04-30T05:33:37.259Z,98472.00
2023-04-30T05:36:44.265Z,98470.56
2023-04-30T05:39:54.222Z,98481.53
2023-04-30T05:42:59.884Z,98481.72
2023-04-30T05:46:06.724Z,98495.41
2023-04-30T05:49:12.627Z,98488.13
2023-04-30T05:52:19.229Z,98499.84
2023-04-30T05:55:27.462Z,98503.81
2023-04-30T05:58:33.860Z,98503.56
2023-04-30T06:01:39.395Z,98524.78
2023-04-30T06:04:46.575Z,98501.00
2023-04-30T06:07:52.081Z,98495.53
2023-04-30T06:11:01.509Z,98497.28
2023-04-30T06:14:08.137Z,98484.44
2023-04-30T06:17:14.534Z,98516.81
2023-04-30T06:20:20.086Z,98525.88
2023-04-30T06:23:26.532Z,98510.91
2023-04-30T06:26:37.774Z,98506.19
2023-04-30T06:29:45.305Z,98515.72
2023-04-30T06:32:50.858Z,98517.81
2023-04-30T06:35:57.710Z,98533.16
2023-04-30T06:39:03.548Z,98524.53
2023-04-30T06:42:12.672Z,98532.06
2023-04-30T06:45:20.992Z,98534.00
2023-04-30T06:48:27.441Z,98533.31
2023-04-30T06:51:32.945Z,98536.78
2023-04-30T06:54:39.473Z,98551.28
2023-04-30T06:57:48.041Z,98549.88
2023-04-30T07:00:54.458Z,98557.91
2023-04-30T07:04:00.451Z,98550.94
2023-04-30T07:07:06.983Z,98546.66
2023-04-30T07:10:13.090Z,98541.72
2023-04-30T07:13:22.182Z,98543.16
2023-04-30T07:16:29.646Z,98556.09
2023-04-30T07:19:36.040Z,98539.78
2023-04-30T07:22:41.503Z,98547.28
2023-04-30T07:25:47.863Z,98547.84
2023-04-30T07:28:56.149Z,98560.56
2023-04-30T07:32:03.455Z,98544.84
2023-04-30T07:35:09.613Z,98550.22
2023-04-30T07:38:17.676Z,98560.09
2023-04-30T07:41:23.154Z,98564.56
2023-04-30T07:44:32.482Z,98551.97
2023-04-30T07:47:38.089Z,98559.84
2023-04-30T07:50:44.544Z,98572.66
2023-04-30T07:53:50.002Z,98577.44
2023-04-30T07:56:56.665Z,98561.00
2023-04-30T08:00:05.019Z,98582.03
2023-04-30T08:03:20.334Z,98581.34
2023-04-30T08:06:25.942Z,98594.22
2023-04-30T08:09:33.067Z,98594.03
2023-04-30T08:12:40.154Z,98615.44
2023-04-30T08:15:49.232Z,98591.47
2023-04-30T08:18:54.774Z,98593.34
2023-04-30T08:22:02.195Z,98585.09
2023-04-30T08:25:08.618Z,98612.50
2023-04-30T08:28:14.975Z,98591.94
2023-04-30T08:31:23.652Z,98590.44
2023-04-30T08:34:29.969Z,98582.16
2023-04-30T08:37:35.490Z,98624.63
2023-04-30T08:40:51.390Z,98623.03
2023-04-30T08:43:59.355Z,98593.84
2023-04-30T08:47:13.520Z,98597.88
2023-04-30T08:50:19.146Z,98609.50
2023-04-30T08:53:25.769Z,98599.00
2023-04-30T08:56:31.755Z,98605.56
2023-04-30T08:59:38.257Z,98608.31
2023-04-30T09:02:47.411Z,98614.00
2023-04-30T09:05:54.073Z,98618.47
2023-04-30T09:08:59.794Z,98597.84
2023-04-30T09:12:19.308Z,98600.19
2023-04-30T09:15:25.167Z,98617.94
2023-04-30T09:18:42.620Z,98608.53
2023-04-30T09:21:48.098Z,98623.09
2023-04-30T09:24:55.381Z,98604.38
2023-04-30T09:28:12.422Z,98610.66
2023-04-30T09:31:24.988Z,98611.47
2023-04-30T09:34:38.186Z,98611.34
2023-04-30T09:37:44.653Z,98617.28
2023-04-30T09:40:50.456Z,98617.28
2023-04-30T09:44:05.574Z,98624.25
2023-04-30T09:47:16.054Z,98630.81
2023-04-30T09:50:22.229Z,98617.09
2023-04-30T09:53:29.512Z,98611.41
2023-04-30T09:56:41.373Z,98607.22
2023-04-30T09:59:52.651Z,98626.22
2023-04-30T10:03:00.775Z,98604.72
2023-04-30T10:06:07.929Z,98597.34
2023-04-30T10:09:16.319Z,98606.66
2023-04-30T10:12:29.570Z,98587.25
2023-04-30T10:15:47.963Z,98595.69
2023-04-30T10:18:57.758Z,98582.63
2023-04-30T10:22:04.993Z,98607.28
2023-04-30T10:25:13.815Z,98538.63
2023-04-30T10:28:20.059Z,98592.50
2023-04-30T10:31:30.973Z,98601.53
2023-04-30T10:34:56.186Z,98595.22
2023-04-30T10:38:16.896Z,98580.19
2023-04-30T10:41:24.122Z,98587.66
2023-04-30T10:44:30.899Z,98596.56
2023-04-30T10:47:40.368Z,98582.41
2023-04-30T10:50:49.157Z,98579.88
2023-04-30T10:53:58.901Z,98570.03
2023-04-30T10:57:17.924Z,98575.84
2023-04-30T11:00:31.020Z,98576.81
2023-04-30T11:03:43.529Z,98572.81
2023-04-30T11:07:11.225Z,98570.38
2023-04-30T11:10:19.191Z,98540.19
2023-04-30T11:13:24.739Z,98551.78
2023-04-30T11:16:33.840Z,98587.03
2023-04-30T11:19:51.463Z,98565.31
2023-04-30T11:23:25.310Z,98592.13
2023-04-30T11:27:07.016Z,98584.72
2023-04-30T11:30:17.636Z,98586.63
2023-04-30T11:33:24.495Z,98554.13
2023-04-30T11:36:35.324Z,98591.69
2023-04-30T11:39:43.348Z,98588.72
2023-04-30T11:42:51.064Z,98581.13
2023-04-30T11:46:10.387Z,98574.38
2023-04-30T11:49:16.947Z,98576.63
2023-04-30T11:52:29.028Z,98581.78
2023-04-30T11:55:35.757Z,98593.81
2023-04-30T11:58:42.187Z,98582.66
2023-04-30T12:01:49.108Z,98573.34
2023-04-30T12:04:54.914Z,98582.53
2023-04-30T12:08:08.250Z,98590.22
2023-04-30T12:11:27.247Z,98588.00
2023-04-30T12:14:36.575Z,98580.22
2023-04-30T12:17:42.106Z,98575.19
2023-04-30T12:20:48.793Z,98580.72
2023-04-30T12:23:57.211Z,98591.28
2023-04-30T12:27:03.893Z,98563.81
2023-04-30T12:30:13.520Z,98575.50
2023-04-30T12:33:22.127Z,98570.53
2023-04-30T12:36:36.945Z,98582.34
2023-04-30T12:39:47.687Z,98557.19
2023-04-30T12:42:53.193Z,98555.28
2023-04-30T12:45:59.948Z,98555.44
2023-04-30T12:49:05.699Z,98553.13
2023-04-30T12:52:15.740Z,98552.91
2023-04-30T12:55:27.318Z,98560.63
2023-04-30T12:58:35.359Z,98581.97
2023-04-30T13:01:48.736Z,98555.84
2023-04-30T13:04:57.178Z,98550.09
2023-04-30T13:08:06.626Z,98546.72
2023-04-30T13:11:15.748Z,98538.28
2023-04-30T13:14:21.232Z,98542.66
2023-04-30T13:17:27.644Z,98560.22
2023-04-30T13:20:33.430Z,98541.94
2023-04-30T13:23:51.170Z,98542.44
2023-04-30T13:27:01.046Z,98536.03
2023-04-30T13:30:08.664Z,98530.16
2023-04-30T13:33:14.105Z,98535.81
2023-04-30T13:36:21.199Z,98527.56
2023-04-30T13:39:26.860Z,98539.72
2023-04-30T13:42:36.623Z,98541.88
2023-04-30T13:45:42.412Z,98550.03
2023-04-30T13:48:50.324Z,98521.88
2023-04-30T13:51:55.850Z,98530.09
2023-04-30T13:55:02.577Z,98141.22
2023-04-30T13:58:10.913Z,98539.97
2023-04-30T14:01:17.551Z,98539.72
2023-04-30T14:04:23.143Z,98553.72
2023-04-30T14:07:29.936Z,98534.47
2023-04-30T14:10:35.977Z,98536.91
2023-04-30T14:13:45.034Z,98530.63
2023-04-30T14:16:50.879Z,98547.72
2023-04-30T14:19:57.721Z,98547.22
2023-04-30T14:23:04.155Z,98532.78
2023-04-30T14:26:10.704Z,98550.09
2023-04-30T14:29:21.684Z,98541.88
2023-04-30T14:32:30.096Z,98543.81
2023-04-30T14:35:36.638Z,98529.59
2023-04-30T14:38:42.950Z,98536.13
2023-04-30T14:41:48.482Z,98545.78
2023-04-30T14:45:00.586Z,98554.16
2023-04-30T14:48:06.758Z,98542.09
2023-04-30T14:51:13.162Z,98545.88
2023-04-30T14:54:18.877Z,98540.97
2023-04-30T14:57:25.672Z,98538.09
2023-04-30T15:00:34.554Z,98561.72
2023-04-30T15:03:41.133Z,98543.88
2023-04-30T15:06:47.320Z,98536.44
2023-04-30T15:09:53.835Z,98531.53
2023-04-30T15:12:59.488Z,98532.94
2023-04-30T15:16:10.243Z,98556.88
2023-04-30T15:19:16.145Z,98550.75
2023-04-30T15:22:22.825Z,98558.34
2023-04-30T15:25:28.894Z,98558.34
2023-04-30T15:28:36.304Z,98558.38
2023-04-30T15:31:44.686Z,98563.47
2023-04-30T15:34:51.549Z,98547.06
2023-04-30T15:37:57.102Z,98541.09
2023-04-30T15:41:03.730Z,98535.50
2023-04-30T15:44:09.414Z,98544.69
2023-04-30T15:47:18.812Z,98553.78
2023-04-30T15:50:24.426Z,98526.50
2023-04-30T15:53:30.797Z,98536.47
2023-04-30T15:56:37.770Z,98539.72
2023-04-30T15:59:44.147Z,98570.16
2023-04-30T16:02:52.607Z,98545.19
2023-04-30T16:06:00.088Z,98543.13
2023-04-30T16:09:08.083Z,98541.84
2023-04-30T16:12:14.399Z,98539.63
2023-04-30T16:15:20.207Z,98541.13
2023-04-30T16:18:30.235Z,98540.63
2023-04-30T16:21:38.796Z,98542.13
2023-04-30T16:24:45.225Z,98547.25
2023-04-30T16:27:50.885Z,98541.66
2023-04-30T16:30:57.861Z,98547.84
2023-04-30T16:34:06.476Z,98527.09
2023-04-30T16:37:13.955Z,98550.28
2023-04-30T16:40:21.051Z,98536.72
2023-04-30T16:43:29.938Z,98544.34
2023-04-30T16:46:35.893Z,98541.75
2023-04-30T16:49:45.229Z,98549.94
2023-04-30T16:52:50.696Z,98554.38
2023-04-30T16:55:57.439Z,98561.09
2023-04-30T16:59:03.054Z,98566.44
2023-04-30T17:02:10.351Z,98553.53
2023-04-30T17:05:19.266Z,98540.94
2023-04-30T17:08:26.393Z,98550.63
2023-04-30T17:11:31.985Z,98557.94
2023-04-30T17:14:38.490Z,98570.53
2023-04-30T17:17:44.081Z,98570.63
2023-04-30T17:20:54.502Z,98577.03
2023-04-30T17:24:00.327Z,98584.44
2023-04-30T17:27:06.896Z,98586.34
2023-04-30T17:30:13.232Z,98586.78
2023-04-30T17:33:20.035Z,98599.34
2023-04-30T17:36:28.472Z,98595.31
2023-04-30T17:39:35.471Z,98593.69
2023-04-30T17:42:41.469Z,98599.50
2023-04-30T17:45:47.966Z,98605.06
2023-04-30T17:48:53.638Z,98597.31
2023-04-30T17:52:02.783Z,98605.16
2023-04-30T17:55:12.070Z,98619.03
2023-04-30T17:58:18.601Z,98622.75
2023-04-30T18:01:25.218Z,98617.47
2023-04-30T18:04:31.834Z,98614.13
2023-04-30T18:07:40.212Z,98624.19
2023-04-30T18:10:47.052Z,98623.78
2023-04-30T18:13:52.846Z,98619.13
2023-04-30T18:16:59.628Z,98624.84
2023-04-30T18:20:05.474Z,98620.69
2023-04-30T18:23:16.198Z,98624.06
2023-04-30T18:26:24.950Z,98636.28
2023-04-30T18:29:31.495Z,98631.34
2023-04-30T18:32:37.568Z,98639.94
2023-04-30T18:35:46.994Z,98635.06
2023-04-30T18:38:55.362Z,98641.16
2023-04-30T18:42:02.207Z,98652.28
2023-04-30T18:45:10.281Z,98654.38
2023-04-30T18:48:19.357Z,98656.63
2023-04-30T18:51:25.107Z,98638.22
2023-04-30T18:54:34.741Z,98651.88
2023-04-30T18:57:42.076Z,98645.94
2023-04-30T19:00:49.884Z,98659.31
2023-04-30T19:03:55.893Z,98639.31
2023-04-30T19:07:04.895Z,98657.44
2023-04-30T19:10:14.084Z,98659.72
2023-04-30T19:13:20.992Z,98663.44
2023-04-30T19:16:30.066Z,98662.16
2023-04-30T19:19:39.763Z,98661.59
2023-04-30T19:22:50.291Z,98671.56
2023-04-30T19:26:00.397Z,98673.72
2023-04-30T19:29:06.686Z,98670.59
2023-04-30T19:32:13.473Z,98676.22
2023-04-30T19:35:19.733Z,98672.19
2023-04-30T19:38:26.657Z,98676.78
2023-04-30T19:41:35.291Z,98679.88
2023-04-30T19:44:44.935Z,98681.06
2023-04-30T19:47:51.474Z,98675.66
2023-04-30T19:50:58.428Z,98681.19
2023-04-30T19:54:04.536Z,98689.09
2023-04-30T19:57:14.559Z,98684.00
2023-04-30T20:00:20.903Z,98693.19
2023-04-30T20:03:28.911Z,98687.44
2023-04-30T20:06:35.287Z,98677.34
2023-04-30T20:09:42.355Z,98690.50
2023-04-30T20:12:54.350Z,98690.84
2023-04-30T20:16:01.580Z,98687.78
2023-04-30T20:19:07.525Z,98686.19
2023-04-30T20:22:14.568Z,98691.72
2023-04-30T20:25:20.394Z,98689.41
2023-04-30T20:28:31.044Z,98695.97
2023-04-30T20:31:37.983Z,98692.75
2023-04-30T20:34:44.736Z,98686.47
2023-04-30T20:37:55.341Z,98700.72
2023-04-30T20:41:02.534Z,98687.00
2023-04-30T20:44:11.804Z,98680.34
2023-04-30T20:47:18.312Z,98685.53
2023-04-30T20:50:24.648Z,98684.34
2023-04-30T20:53:31.265Z,98693.25
2023-04-30T20:56:37.130Z,98691.53
2023-04-30T20:59:46.592Z,98687.69
2023-04-30T21:02:52.984Z,98683.34
2023-04-30T21:05:59.704Z,98690.47
2023-04-30T21:09:06.587Z,98689.75
2023-04-30T21:12:13.365Z,98685.88
2023-04-30T21:15:22.699Z,98705.59
2023-04-30T21:18:29.531Z,98699.59
2023-04-30T21:21:35.110Z,98702.28
2023-04-30T21:24:42.444Z,98710.41
2023-04-30T21:27:48.971Z,98707.78
2023-04-30T21:30:58.495Z,98712.19
2023-04-30T21:34:04.162Z,98718.59
2023-04-30T21:37:10.607Z,98711.72
2023-04-30T21:40:16.683Z,98714.59
2023-04-30T21:43:23.117Z,98712.06
2023-04-30T21:46:31.429Z,98728.81
2023-04-30T21:49:38.164Z,98726.97
2023-04-30T21:52:43.848Z,98715.41
2023-04-30T21:55:50.832Z,98727.09
2023-04-30T21:58:56.559Z,98740.38
2023-04-30T22:02:20.030Z,98744.72
2023-04-30T22:05:28.735Z,98742.19
2023-04-30T22:08:35.139Z,98743.16
2023-04-30T22:11:40.602Z,98748.41
2023-04-30T22:14:46.873Z,98748.41
2023-04-30T22:17:55.642Z,98746.88
2023-04-30T22:21:02.690Z,98752.13
2023-04-30T22:24:09.351Z,98758.38
2023-04-30T22:27:16.252Z,98756.91
2023-04-30T22:30:22.301Z,98759.53
2023-04-30T22:33:31.558Z,98760.38
2023-04-30T22:36:37.370Z,98764.78
2023-04-30T22:39:43.729Z,98766.06
2023-04-30T22:42:50.270Z,98773.41
2023-04-30T22:45:57.976Z,98762.31
2023-04-30T22:49:06.779Z,98767.84
2023-04-30T22:52:14.196Z,98771.22
2023-04-30T22:55:20.021Z,98771.41
2023-04-30T22:58:26.414Z,98772.59
2023-04-30T23:01:31.966Z,98763.22
2023-04-30T23:04:41.105Z,98765.81
2023-04-30T23:07:49.025Z,98765.19
2023-04-30T23:10:56.259Z,98765.50
2023-04-30T23:14:01.802Z,98769.19
2023-04-30T23:17:08.317Z,98760.00
2023-04-30T23:20:17.022Z,98764.22
2023-04-30T23:23:23.806Z,98763.69
2023-04-30T23:26:29.305Z,98767.13
2023-04-30T23:29:36.463Z,98762.63
2023-04-30T23:32:42.354Z,98767.94
2023-04-30T23:35:51.681Z,98769.75
2023-04-30T23:38:57.354Z,98764.50
2023-04-30T23:42:04.028Z,98771.75
2023-04-30T23:45:11.428Z,98768.22
2023-04-30T23:48:18.088Z,98768.94
2023-04-30T23:51:26.543Z,98769.63
2023-04-30T23:54:33.244Z,98769.47
2023-04-30T23:57:38.805Z,98770.19
